createdAt,value
2019-05-12T00:00:48.429Z,88.1529
2019-05-12T00:01:51.309Z,88.8792
2019-05-12T00:02:54.310Z,88.5084
2019-05-12T00:03:58.062Z,88.6839
2019-05-12T00:05:01.289Z,89.0486
2019-05-12T00:06:04.327Z,88.6870
2019-05-12T00:07:08.703Z,88.9998
2019-05-12T00:08:12.328Z,88.9769
2019-05-12T00:09:15.300Z,89.0806
2019-05-12T00:10:18.306Z,88.7510
2019-05-12T00:11:21.299Z,89.0181
2019-05-12T00:12:24.351Z,89.1051
2019-05-12T00:13:27.888Z,88.9632
2019-05-12T00:14:31.299Z,88.8014
2019-05-12T00:15:34.320Z,88.8258
2019-05-12T00:16:38.437Z,88.8701
2019-05-12T00:17:41.368Z,88.9296
2019-05-12T00:18:43.276Z,89.0257
2019-05-12T00:19:47.912Z,89.2058
2019-05-12T00:20:51.287Z,89.1722
2019-05-12T00:21:54.295Z,89.9275
2019-05-12T00:22:58.143Z,89.9092
2019-05-12T00:24:01.315Z,89.6758
2019-05-12T00:25:04.299Z,89.0074
2019-05-12T00:26:07.929Z,89.4514
2019-05-12T00:27:11.315Z,89.6315
2019-05-12T00:28:14.330Z,89.4514
2019-05-12T00:29:18.459Z,89.4286
2019-05-12T00:30:21.285Z,89.5308
2019-05-12T00:31:24.342Z,89.5705
2019-05-12T00:32:28.185Z,89.3980
2019-05-12T00:33:30.307Z,88.1148
2019-05-12T00:34:32.423Z,87.9225
2019-05-12T00:35:37.849Z,87.1351
2019-05-12T00:36:41.316Z,87.2785
2019-05-12T00:37:44.325Z,87.6905
2019-05-12T00:38:48.495Z,87.1168
2019-05-12T00:39:51.326Z,87.7867
2019-05-12T00:40:54.319Z,87.8035
2019-05-12T00:41:58.641Z,87.2923
2019-05-12T00:43:02.366Z,86.7323
2019-05-12T00:44:05.304Z,85.1682
2019-05-12T00:45:08.338Z,85.0019
2019-05-12T00:46:11.326Z,84.6128
2019-05-12T00:47:14.266Z,85.0889
2019-05-12T00:48:17.823Z,85.4246
2019-05-12T00:49:21.306Z,85.2903
2019-05-12T00:50:24.362Z,85.4063
2019-05-12T00:51:28.845Z,86.1570
2019-05-12T00:52:32.295Z,85.8137
2019-05-12T00:53:40.142Z,85.3971
2019-05-12T00:54:43.318Z,86.0014
2019-05-12T00:55:47.661Z,85.7359
2019-05-12T00:56:49.293Z,85.7588
2019-05-12T00:57:52.341Z,85.8137
2019-05-12T00:58:55.395Z,85.8137
2019-05-12T01:00:00.319Z,85.2995
2019-05-12T01:01:02.264Z,85.6062
2019-05-12T01:02:05.305Z,84.7135
2019-05-12T01:03:08.882Z,83.8895
2019-05-12T01:04:11.316Z,83.7446
2019-05-12T01:05:14.320Z,84.3290
2019-05-12T01:06:17.801Z,84.8051
2019-05-12T01:07:21.301Z,84.8112
2019-05-12T01:08:24.313Z,84.5167
2019-05-12T01:09:28.143Z,83.8438
2019-05-12T01:10:31.301Z,84.0635
2019-05-12T01:11:34.377Z,83.9811
2019-05-12T01:12:38.288Z,84.1550
2019-05-12T01:13:41.309Z,83.7888
2019-05-12T01:14:44.325Z,83.5965
2019-05-12T01:15:48.151Z,82.7832
2019-05-12T01:16:51.291Z,83.2532
2019-05-12T01:17:54.293Z,83.0945
2019-05-12T01:18:58.587Z,83.2868
2019-05-12T01:20:01.311Z,81.3870
2019-05-12T01:21:04.289Z,81.8540
2019-05-12T01:22:08.092Z,81.0651
2019-05-12T01:23:11.329Z,81.0529
2019-05-12T01:24:13.305Z,81.5839
2019-05-12T01:25:17.625Z,80.7279
2019-05-12T01:26:20.330Z,80.6180
2019-05-12T01:27:23.290Z,80.7828
2019-05-12T01:28:27.859Z,79.7055
2019-05-12T01:29:31.288Z,80.4425
2019-05-12T01:30:33.345Z,79.3866
2019-05-12T01:31:37.802Z,79.8520
2019-05-12T01:32:41.308Z,79.1745
2019-05-12T01:33:44.341Z,79.6658
2019-05-12T01:34:48.680Z,79.7101
2019-05-12T01:35:51.321Z,79.3774
2019-05-12T01:36:54.298Z,80.4395
2019-05-12T01:38:01.073Z,79.5773
2019-05-12T01:39:04.309Z,79.4675
2019-05-12T01:40:08.910Z,79.8169
2019-05-12T01:41:12.287Z,79.5682
2019-05-12T01:42:18.063Z,80.2930
2019-05-12T01:43:21.441Z,80.0778
2019-05-12T01:44:24.304Z,80.1129
2019-05-12T01:45:28.836Z,79.8535
2019-05-12T01:46:32.324Z,79.2798
2019-05-12T01:47:35.299Z,79.2340
2019-05-12T01:48:38.298Z,79.6338
2019-05-12T01:49:41.292Z,79.3805
2019-05-12T01:50:44.325Z,79.6460
2019-05-12T01:51:47.637Z,79.8428
2019-05-12T01:52:50.320Z,79.7299
2019-05-12T01:54:07.865Z,79.7009
2019-05-12T01:55:01.319Z,80.1465
2019-05-12T01:56:04.330Z,80.2472
2019-05-12T01:57:08.134Z,80.3388
2019-05-12T01:58:11.308Z,80.0961
2019-05-12T01:59:14.325Z,80.2563
2019-05-12T02:00:18.369Z,79.7101
2019-05-12T02:01:21.306Z,80.0824
2019-05-12T02:02:24.268Z,80.2411
2019-05-12T02:03:28.392Z,79.9207
2019-05-12T02:04:31.308Z,80.1129
2019-05-12T02:05:34.338Z,79.9023
2019-05-12T02:06:38.644Z,79.8108
2019-05-12T02:07:42.297Z,80.1831
2019-05-12T02:08:47.609Z,80.3296
2019-05-12T02:09:51.332Z,80.2976
2019-05-12T02:10:54.271Z,80.1602
2019-05-12T02:11:58.229Z,80.5951
2019-05-12T02:13:01.310Z,80.5432
2019-05-12T02:14:04.328Z,80.6684
2019-05-12T02:15:08.172Z,80.7813
2019-05-12T02:16:11.286Z,80.9186
2019-05-12T02:17:14.323Z,80.8408
2019-05-12T02:18:17.787Z,80.8377
2019-05-12T02:19:21.327Z,80.8042
2019-05-12T02:20:24.278Z,80.7996
2019-05-12T02:21:27.942Z,81.1109
2019-05-12T02:22:31.310Z,80.2472
2019-05-12T02:23:34.314Z,80.4623
2019-05-12T02:24:39.025Z,81.0285
2019-05-12T02:25:42.302Z,81.0529
2019-05-12T02:26:45.296Z,81.1994
2019-05-12T02:27:48.301Z,80.4944
2019-05-12T02:28:51.338Z,80.7370
2019-05-12T02:29:54.304Z,80.5768
2019-05-12T02:30:58.998Z,80.8377
2019-05-12T02:32:02.290Z,81.1200
2019-05-12T02:33:05.219Z,81.3779
2019-05-12T02:34:07.707Z,81.5747
2019-05-12T02:35:10.312Z,81.0025
2019-05-12T02:36:15.088Z,80.9323
2019-05-12T02:37:18.280Z,80.3830
2019-05-12T02:38:21.284Z,80.3296
2019-05-12T02:39:25.009Z,80.3708
2019-05-12T02:40:27.334Z,79.4232
2019-05-12T02:41:30.284Z,79.1241
2019-05-12T02:42:34.926Z,77.3495
2019-05-12T02:43:38.312Z,77.7783
2019-05-12T02:44:43.700Z,77.9171
2019-05-12T02:45:47.286Z,77.0474
2019-05-12T02:46:50.268Z,77.2442
2019-05-12T02:47:54.306Z,76.9970
2019-05-12T02:48:57.295Z,76.8353
2019-05-12T02:50:00.315Z,76.8734
2019-05-12T02:51:05.492Z,76.8627
2019-05-12T02:52:07.317Z,77.0336
2019-05-12T02:53:10.288Z,76.4843
2019-05-12T02:54:14.388Z,75.5505
2019-05-12T02:55:17.296Z,76.0754
2019-05-12T02:56:20.305Z,75.1965
2019-05-12T02:57:25.535Z,76.0113
2019-05-12T02:58:29.276Z,76.1273
2019-05-12T02:59:34.723Z,76.6522
2019-05-12T03:00:38.347Z,76.3684
2019-05-12T03:01:41.294Z,76.6842
2019-05-12T03:02:44.397Z,76.4782
2019-05-12T03:03:47.289Z,76.3226
2019-05-12T03:04:50.376Z,76.7407
2019-05-12T03:05:54.858Z,77.1420
2019-05-12T03:07:02.078Z,76.8215
2019-05-12T03:08:06.289Z,76.9635
2019-05-12T03:09:09.305Z,76.7437
2019-05-12T03:10:14.584Z,76.6628
2019-05-12T03:11:17.334Z,76.9009
2019-05-12T03:12:20.252Z,77.0016
2019-05-12T03:13:25.030Z,76.8673
2019-05-12T03:14:28.294Z,76.8689
2019-05-12T03:15:31.299Z,76.8032
2019-05-12T03:16:35.110Z,77.1664
2019-05-12T03:17:38.279Z,76.6079
2019-05-12T03:18:44.685Z,76.9924
2019-05-12T03:19:48.299Z,76.2448
2019-05-12T03:20:54.079Z,76.4660
2019-05-12T03:21:57.288Z,76.9696
2019-05-12T03:23:00.328Z,76.9055
2019-05-12T03:24:05.697Z,77.1511
2019-05-12T03:25:19.958Z,76.1898
2019-05-12T03:26:17.307Z,76.6613
2019-05-12T03:27:20.320Z,76.8002
2019-05-12T03:28:25.610Z,76.3424
2019-05-12T03:29:29.316Z,76.6171
2019-05-12T03:30:37.135Z,76.4645
2019-05-12T03:31:41.332Z,76.6903
2019-05-12T03:32:47.229Z,76.5530
2019-05-12T03:33:54.249Z,77.1603
2019-05-12T03:34:59.356Z,76.2554
2019-05-12T03:36:08.434Z,76.5393
2019-05-12T03:37:10.329Z,76.7071
2019-05-12T03:38:14.820Z,76.1959
2019-05-12T03:39:18.266Z,76.1669
2019-05-12T03:40:24.693Z,76.6308
2019-05-12T03:41:28.300Z,76.7773
2019-05-12T03:42:31.293Z,76.9650
2019-05-12T03:43:35.136Z,76.8872
2019-05-12T03:44:38.347Z,77.1832
2019-05-12T03:45:44.978Z,77.3587
2019-05-12T03:46:47.288Z,77.7096
2019-05-12T03:47:50.299Z,78.5763
2019-05-12T03:48:55.365Z,78.9456
2019-05-12T03:49:58.340Z,79.0845
2019-05-12T03:51:01.284Z,78.3368
2019-05-12T03:52:05.228Z,78.6572
2019-05-12T03:53:10.839Z,78.4802
2019-05-12T03:54:15.244Z,78.5214
2019-05-12T03:55:31.678Z,78.2681
2019-05-12T03:56:26.471Z,78.5306
2019-05-12T03:57:29.285Z,78.8647
2019-05-12T03:58:34.559Z,79.7009
2019-05-12T03:59:38.293Z,80.0946
2019-05-12T04:00:44.184Z,79.3713
2019-05-12T04:01:46.286Z,79.2615
2019-05-12T04:02:49.295Z,79.0875
2019-05-12T04:03:54.200Z,78.7854
2019-05-12T04:04:57.301Z,79.0616
2019-05-12T04:06:00.329Z,79.4232
2019-05-12T04:07:05.133Z,79.3912
2019-05-12T04:08:08.316Z,80.0671
2019-05-12T04:09:11.292Z,80.2915
2019-05-12T04:10:15.598Z,78.4939
2019-05-12T04:11:19.308Z,78.7808
2019-05-12T04:12:25.302Z,79.0692
2019-05-12T04:13:28.248Z,78.5077
2019-05-12T04:14:34.367Z,77.8378
2019-05-12T04:15:37.313Z,78.1048
2019-05-12T04:16:40.335Z,77.5143
2019-05-12T04:17:45.231Z,77.7417
2019-05-12T04:18:48.289Z,77.6272
2019-05-12T04:19:51.347Z,76.9223
2019-05-12T04:20:54.587Z,77.2107
2019-05-12T04:21:57.349Z,77.7005
2019-05-12T04:23:00.279Z,77.8790
2019-05-12T04:24:05.556Z,77.4273
2019-05-12T04:25:08.328Z,77.9065
2019-05-12T04:26:15.736Z,78.3383
2019-05-12T04:27:19.266Z,78.3154
2019-05-12T04:28:24.559Z,78.7045
2019-05-12T04:29:27.286Z,79.2294
2019-05-12T04:30:30.356Z,79.3713
2019-05-12T04:31:34.759Z,79.6200
2019-05-12T04:32:38.297Z,79.8306
2019-05-12T04:33:41.307Z,80.4196
2019-05-12T04:34:44.732Z,79.8993
2019-05-12T04:35:48.331Z,80.5951
2019-05-12T04:36:51.320Z,80.2182
2019-05-12T04:37:55.290Z,80.5631
2019-05-12T04:38:58.289Z,79.5972
2019-05-12T04:40:01.316Z,79.4400
2019-05-12T04:41:05.863Z,79.4873
2019-05-12T04:42:09.265Z,78.4878
2019-05-12T04:43:14.560Z,77.9492
2019-05-12T04:44:17.282Z,78.7945
2019-05-12T04:45:20.323Z,78.4070
2019-05-12T04:46:25.284Z,78.2422
2019-05-12T04:47:27.310Z,77.5463
2019-05-12T04:48:30.291Z,78.4649
2019-05-12T04:49:34.626Z,77.6638
2019-05-12T04:50:37.325Z,76.9955
2019-05-12T04:51:40.279Z,77.2671
2019-05-12T04:52:44.648Z,78.5580
2019-05-12T04:53:48.272Z,78.7442
2019-05-12T04:54:51.292Z,79.5956
2019-05-12T04:56:09.662Z,79.5819
2019-05-12T04:57:04.178Z,78.3337
2019-05-12T04:58:07.286Z,78.1643
2019-05-12T04:59:10.301Z,76.7849
2019-05-12T05:00:15.860Z,77.3297
2019-05-12T05:01:19.287Z,77.4670
2019-05-12T05:02:25.060Z,76.4843
2019-05-12T05:03:28.300Z,76.3638
2019-05-12T05:04:31.320Z,74.8440
2019-05-12T05:05:35.324Z,75.2743
2019-05-12T05:06:39.295Z,74.6456
2019-05-12T05:07:44.834Z,75.2758
2019-05-12T05:08:48.295Z,74.5281
2019-05-12T05:09:51.326Z,74.9630
2019-05-12T05:10:54.885Z,75.1202
2019-05-12T05:11:58.299Z,74.6380
2019-05-12T05:13:01.290Z,74.3297
2019-05-12T05:14:04.460Z,74.7524
2019-05-12T05:15:07.326Z,74.9722
2019-05-12T05:16:10.316Z,74.5144
2019-05-12T05:17:15.072Z,74.1848
2019-05-12T05:18:18.288Z,73.6889
2019-05-12T05:19:21.264Z,73.5882
2019-05-12T05:20:24.349Z,73.7072
2019-05-12T05:21:27.283Z,73.1167
2019-05-12T05:22:30.254Z,72.9061
2019-05-12T05:23:33.588Z,72.9122
2019-05-12T05:24:35.304Z,73.1777
2019-05-12T05:25:38.358Z,72.3629
2019-05-12T05:26:43.448Z,73.6034
2019-05-12T05:27:46.312Z,73.0129
2019-05-12T05:28:49.268Z,72.8740
2019-05-12T05:29:54.184Z,72.3247
2019-05-12T05:30:57.287Z,72.3018
2019-05-12T05:32:00.289Z,72.2622
2019-05-12T05:33:04.490Z,72.5353
2019-05-12T05:34:08.278Z,73.0037
2019-05-12T05:35:13.301Z,72.9061
2019-05-12T05:36:19.746Z,72.7642
2019-05-12T05:37:23.921Z,72.9381
2019-05-12T05:38:27.290Z,72.8435
2019-05-12T05:39:30.300Z,71.7174
2019-05-12T05:40:35.359Z,70.2235
2019-05-12T05:41:40.337Z,69.0349
2019-05-12T05:42:47.285Z,68.8701
2019-05-12T05:43:54.278Z,68.7083
2019-05-12T05:44:57.269Z,68.0186
2019-05-12T05:46:07.048Z,67.6936
2019-05-12T05:47:10.337Z,67.9988
2019-05-12T05:48:13.705Z,67.5456
2019-05-12T05:49:16.301Z,67.2770
2019-05-12T05:50:25.106Z,67.1519
2019-05-12T05:51:27.332Z,65.8106
2019-05-12T05:52:33.062Z,64.8081
2019-05-12T05:53:38.306Z,65.5772
2019-05-12T05:54:41.271Z,66.8742
2019-05-12T05:55:44.342Z,68.1010
2019-05-12T05:56:57.498Z,69.4697
2019-05-12T05:57:59.708Z,69.4408
2019-05-12T05:59:05.337Z,70.5623
2019-05-12T06:00:17.320Z,70.5303
2019-05-12T06:01:16.355Z,70.8324
2019-05-12T06:02:24.440Z,70.9392
2019-05-12T06:03:28.054Z,70.0221
2019-05-12T06:04:31.298Z,68.8380
2019-05-12T06:05:38.544Z,68.0690
2019-05-12T06:06:50.405Z,67.0527
2019-05-12T06:07:50.304Z,66.4485
2019-05-12T06:08:54.496Z,66.3737
2019-05-12T06:09:57.317Z,66.2516
2019-05-12T06:11:00.300Z,65.7252
2019-05-12T06:12:05.280Z,66.9963
2019-05-12T06:13:11.253Z,68.4199
2019-05-12T06:14:16.276Z,69.3324
2019-05-12T06:15:19.285Z,70.5852
2019-05-12T06:16:25.088Z,71.0521
2019-05-12T06:17:28.290Z,71.5801
2019-05-12T06:18:33.305Z,71.3512
2019-05-12T06:19:36.306Z,71.3634
2019-05-12T06:20:39.268Z,70.0511
2019-05-12T06:21:44.055Z,70.2388
2019-05-12T06:22:48.603Z,69.0394
2019-05-12T06:23:55.315Z,68.7511
2019-05-12T06:24:59.004Z,68.8975
2019-05-12T06:26:04.352Z,68.2460
2019-05-12T06:27:15.112Z,67.6707
2019-05-12T06:28:16.264Z,67.6143
2019-05-12T06:29:20.789Z,68.6488
2019-05-12T06:30:25.288Z,68.2551
2019-05-12T06:31:29.806Z,69.0761
2019-05-12T06:32:33.675Z,68.4306
2019-05-12T06:33:36.507Z,67.9957
2019-05-12T06:34:39.299Z,67.9454
2019-05-12T06:35:45.124Z,67.3030
2019-05-12T06:36:48.335Z,67.5593
2019-05-12T06:38:00.185Z,66.6133
2019-05-12T06:38:59.297Z,65.6962
2019-05-12T06:40:03.589Z,67.5593
2019-05-12T06:41:06.333Z,66.8956
2019-05-12T06:42:14.134Z,66.8742
2019-05-12T06:43:17.335Z,67.0985
2019-05-12T06:44:20.272Z,67.4861
2019-05-12T06:45:23.530Z,67.9088
2019-05-12T06:46:26.300Z,69.2805
2019-05-12T06:47:28.327Z,69.3355
2019-05-12T06:48:33.210Z,70.0679
2019-05-12T06:49:36.309Z,69.7581
2019-05-12T06:50:39.567Z,70.1366
2019-05-12T06:51:44.295Z,69.5644
2019-05-12T06:52:49.123Z,69.4423
2019-05-12T06:53:53.463Z,69.4148
2019-05-12T06:54:56.810Z,68.7678
2019-05-12T06:56:00.318Z,68.2551
2019-05-12T06:57:18.548Z,68.7129
2019-05-12T06:58:13.811Z,68.7541
2019-05-12T06:59:17.338Z,68.6854
2019-05-12T07:00:22.378Z,68.0278
2019-05-12T07:01:28.315Z,67.2435
2019-05-12T07:02:37.188Z,67.9545
2019-05-12T07:03:39.281Z,67.4632
2019-05-12T07:04:47.498Z,68.1056
2019-05-12T07:05:50.270Z,67.9454
2019-05-12T07:06:56.086Z,68.2918
2019-05-12T07:08:04.000Z,68.2063
2019-05-12T07:09:09.864Z,68.2002
2019-05-12T07:10:35.172Z,67.7974
2019-05-12T07:11:24.292Z,67.0436
2019-05-12T07:12:32.781Z,67.9591
2019-05-12T07:13:34.362Z,68.0690
2019-05-12T07:14:37.328Z,68.2643
2019-05-12T07:15:40.730Z,69.0745
2019-05-12T07:16:44.296Z,69.6559
2019-05-12T07:17:49.738Z,69.6483
2019-05-12T07:18:54.176Z,69.3080
2019-05-12T07:19:58.363Z,69.0990
2019-05-12T07:21:01.334Z,68.1422
2019-05-12T07:22:18.844Z,68.3619
2019-05-12T07:23:14.261Z,68.8289
2019-05-12T07:24:17.330Z,68.2826
2019-05-12T07:25:22.933Z,68.5664
2019-05-12T07:26:28.308Z,68.4901
2019-05-12T07:27:36.814Z,68.3833
2019-05-12T07:28:40.471Z,68.3742
2019-05-12T07:29:43.667Z,67.9026
2019-05-12T07:30:46.294Z,67.8355
2019-05-12T07:31:49.294Z,68.0644
2019-05-12T07:32:59.379Z,68.7190
2019-05-12T07:34:00.285Z,68.6503
2019-05-12T07:35:03.913Z,68.2155
2019-05-12T07:36:07.270Z,67.0146
2019-05-12T07:37:10.283Z,67.2251
2019-05-12T07:38:20.970Z,67.7195
2019-05-12T07:39:21.299Z,68.2795
2019-05-12T07:40:29.719Z,66.9566
2019-05-12T07:41:34.201Z,68.6870
2019-05-12T07:42:39.536Z,67.6875
2019-05-12T07:43:44.357Z,67.8019
2019-05-12T07:44:47.322Z,68.2368
2019-05-12T07:45:53.979Z,68.6732
2019-05-12T07:46:58.316Z,67.8523
2019-05-12T07:48:08.144Z,67.5608
2019-05-12T07:49:09.304Z,67.8126
2019-05-12T07:50:16.192Z,68.4535
2019-05-12T07:51:20.306Z,67.4266
2019-05-12T07:52:24.235Z,67.6341
2019-05-12T07:53:27.319Z,67.1122
2019-05-12T07:54:35.344Z,66.9093
2019-05-12T07:55:39.856Z,66.8498
2019-05-12T07:56:46.300Z,66.6545
2019-05-12T07:57:55.368Z,66.6728
2019-05-12T07:58:57.344Z,65.4414
2019-05-12T08:00:00.294Z,64.7501
2019-05-12T08:01:07.662Z,64.8768
2019-05-12T08:02:10.280Z,64.5991
2019-05-12T08:03:19.005Z,64.7257
2019-05-12T08:04:21.303Z,63.5767
2019-05-12T08:05:24.326Z,63.5096
2019-05-12T08:06:31.870Z,63.8376
2019-05-12T08:07:35.307Z,63.1342
2019-05-12T08:08:41.884Z,63.7247
2019-05-12T08:09:46.326Z,63.8025
2019-05-12T08:10:51.503Z,63.2059
2019-05-12T08:11:56.342Z,61.9791
2019-05-12T08:13:00.883Z,62.3926
2019-05-12T08:14:04.288Z,61.4496
2019-05-12T08:15:09.596Z,61.2436
2019-05-12T08:16:14.171Z,61.9989
2019-05-12T08:17:19.658Z,62.3789
2019-05-12T08:18:24.616Z,61.2421
2019-05-12T08:19:28.575Z,61.2985
2019-05-12T08:20:31.305Z,60.8072
2019-05-12T08:21:34.757Z,62.3148
2019-05-12T08:22:43.609Z,60.0259
2019-05-12T08:23:47.308Z,61.1154
2019-05-12T08:24:50.312Z,60.5386
2019-05-12T08:25:54.025Z,58.4863
2019-05-12T08:27:03.332Z,58.3124
2019-05-12T08:28:14.968Z,56.4004
2019-05-12T08:29:16.889Z,54.6731
2019-05-12T08:30:21.271Z,56.8612
2019-05-12T08:31:31.894Z,51.3634
2019-05-12T08:32:33.869Z,50.7240
2019-05-12T08:33:37.291Z,49.2256
2019-05-12T08:34:40.311Z,52.7596
2019-05-12T08:35:43.902Z,51.9310
2019-05-12T08:36:53.276Z,51.6487
2019-05-12T08:37:55.307Z,55.9655
2019-05-12T08:38:58.316Z,56.3439
2019-05-12T08:40:04.366Z,53.1273
2019-05-12T08:41:09.285Z,55.9045
2019-05-12T08:42:14.377Z,53.8277
2019-05-12T08:43:17.291Z,52.5536
2019-05-12T08:44:24.842Z,50.4204
2019-05-12T08:45:34.002Z,48.7373
2019-05-12T08:46:36.292Z,44.2130
2019-05-12T08:47:39.365Z,48.7465
2019-05-12T08:48:44.390Z,45.6382
2019-05-12T08:49:55.156Z,45.9678
2019-05-12T08:50:56.315Z,45.4871
2019-05-12T08:52:00.360Z,45.8991
2019-05-12T08:53:04.704Z,43.1922
2019-05-12T08:54:08.501Z,47.6555
2019-05-12T08:55:13.856Z,51.4458
2019-05-12T08:56:22.886Z,53.2143
2019-05-12T08:57:34.827Z,54.0566
2019-05-12T08:58:47.301Z,55.7412
2019-05-12T08:59:44.119Z,50.6447
2019-05-12T09:00:50.307Z,47.8614
2019-05-12T09:01:54.297Z,48.2612
2019-05-12T09:02:57.327Z,48.8319
2019-05-12T09:04:05.423Z,50.5577
2019-05-12T09:05:08.299Z,52.9854
2019-05-12T09:06:17.919Z,53.5805
2019-05-12T09:07:19.304Z,55.1720
2019-05-12T09:08:24.218Z,55.4009
2019-05-12T09:09:27.271Z,52.8099
2019-05-12T09:10:30.326Z,49.1157
2019-05-12T09:11:33.688Z,49.1432
2019-05-12T09:12:37.303Z,46.4714
2019-05-12T09:13:40.340Z,47.1427
2019-05-12T09:14:46.161Z,47.4952
2019-05-12T09:15:49.343Z,46.9154
2019-05-12T09:16:53.670Z,46.6133
2019-05-12T09:18:00.370Z,47.3167
2019-05-12T09:19:04.883Z,47.6051
2019-05-12T09:20:08.656Z,50.8614
2019-05-12T09:21:14.054Z,49.6239
2019-05-12T09:22:20.836Z,51.8486
2019-05-12T09:23:24.350Z,51.4656
2019-05-12T09:24:27.551Z,50.8095
2019-05-12T09:25:30.357Z,51.5892
2019-05-12T09:26:34.438Z,50.2525
2019-05-12T09:27:39.452Z,49.5277
2019-05-12T09:28:50.086Z,48.2246
2019-05-12T09:29:54.014Z,44.7593
2019-05-12T09:30:57.403Z,45.8930
2019-05-12T09:32:05.467Z,48.8472
2019-05-12T09:33:08.331Z,52.3171
2019-05-12T09:34:13.482Z,51.5236
2019-05-12T09:35:19.307Z,51.5602
2019-05-12T09:36:24.278Z,51.5938
2019-05-12T09:37:30.909Z,51.2306
2019-05-12T09:38:35.331Z,50.9896
2019-05-12T09:39:42.454Z,51.6899
2019-05-12T09:40:46.329Z,51.7433
2019-05-12T09:41:52.583Z,50.2342
2019-05-12T09:43:00.250Z,50.1961
2019-05-12T09:44:05.311Z,48.9433
2019-05-12T09:45:10.504Z,50.5592
2019-05-12T09:46:14.518Z,52.2347
2019-05-12T09:47:22.948Z,53.4646
2019-05-12T09:48:25.338Z,53.5561
2019-05-12T09:49:38.451Z,52.9397
2019-05-12T09:50:36.310Z,52.0790
2019-05-12T09:51:45.649Z,51.2261
2019-05-12T09:52:50.186Z,51.6976
2019-05-12T09:53:55.562Z,49.3462
2019-05-12T09:54:59.307Z,48.5130
2019-05-12T09:56:04.349Z,49.2226
2019-05-12T09:57:07.363Z,48.7358
2019-05-12T09:58:13.976Z,48.9281
2019-05-12T09:59:22.568Z,48.2429
2019-05-12T10:00:25.334Z,46.4561
2019-05-12T10:01:29.267Z,47.0100
2019-05-12T10:02:36.336Z,45.8213
2019-05-12T10:03:40.154Z,47.5731
2019-05-12T10:04:43.765Z,46.9703
2019-05-12T10:05:46.311Z,46.1768
2019-05-12T10:06:49.355Z,49.0700
2019-05-12T10:07:53.623Z,49.7078
2019-05-12T10:08:56.308Z,48.9006
2019-05-12T10:09:59.173Z,49.9413
2019-05-12T10:11:03.723Z,45.3254
2019-05-12T10:12:07.321Z,44.6296
2019-05-12T10:13:10.305Z,43.6377
2019-05-12T10:14:13.975Z,43.3066
2019-05-12T10:15:18.710Z,42.2049
2019-05-12T10:16:25.304Z,41.1841
2019-05-12T10:17:30.135Z,43.5142
2019-05-12T10:18:33.646Z,45.3315
2019-05-12T10:19:37.314Z,43.9490
2019-05-12T10:20:40.283Z,43.2898
2019-05-12T10:21:44.013Z,46.1402
2019-05-12T10:22:47.328Z,47.4678
2019-05-12T10:23:51.517Z,48.5161
2019-05-12T10:24:58.701Z,49.0745
2019-05-12T10:26:09.471Z,47.8538
2019-05-12T10:27:10.317Z,47.6890
2019-05-12T10:28:15.898Z,44.1596
2019-05-12T10:29:20.804Z,43.4684
2019-05-12T10:30:24.289Z,44.8173
2019-05-12T10:31:29.529Z,46.2654
2019-05-12T10:32:35.315Z,46.2409
2019-05-12T10:33:38.318Z,47.1290
2019-05-12T10:34:41.290Z,48.3253
2019-05-12T10:35:44.315Z,47.9591
2019-05-12T10:36:49.220Z,49.0791
2019-05-12T10:37:53.745Z,50.1686
2019-05-12T10:38:57.326Z,49.2622
2019-05-12T10:40:00.340Z,49.2546
2019-05-12T10:41:04.319Z,49.5430
2019-05-12T10:42:07.292Z,49.8665
2019-05-12T10:43:10.363Z,49.6849
2019-05-12T10:44:13.931Z,49.8024
2019-05-12T10:45:20.605Z,49.4560
2019-05-12T10:46:28.627Z,50.9712
2019-05-12T10:47:34.262Z,49.2042
2019-05-12T10:48:38.357Z,49.1173
2019-05-12T10:49:41.310Z,48.3986
2019-05-12T10:50:44.248Z,48.8792
2019-05-12T10:51:47.778Z,48.8701
2019-05-12T10:52:53.519Z,48.2734
2019-05-12T10:54:01.965Z,48.5802
2019-05-12T10:55:04.515Z,49.8772
2019-05-12T10:56:06.288Z,50.2739
2019-05-12T10:57:09.363Z,49.7200
2019-05-12T10:58:14.346Z,49.6101
2019-05-12T10:59:29.167Z,49.4148
2019-05-12T11:00:26.854Z,48.8380
2019-05-12T11:01:30.292Z,45.3620
2019-05-12T11:02:33.680Z,47.2114
2019-05-12T11:03:37.311Z,47.4418
2019-05-12T11:04:41.281Z,48.5252
2019-05-12T11:05:46.354Z,47.0619
2019-05-12T11:06:49.328Z,46.8147
2019-05-12T11:07:53.978Z,45.3941
2019-05-12T11:08:57.334Z,44.0345
2019-05-12T11:10:03.536Z,42.0249
2019-05-12T11:11:08.325Z,41.6098
2019-05-12T11:12:13.663Z,43.3753
2019-05-12T11:13:18.109Z,41.0681
2019-05-12T11:14:26.320Z,40.2991
2019-05-12T11:15:29.297Z,43.6179
2019-05-12T11:16:34.453Z,43.3951
2019-05-12T11:17:40.174Z,45.4719
2019-05-12T11:18:43.731Z,43.2929
2019-05-12T11:19:51.335Z,44.7486
2019-05-12T11:20:55.306Z,45.0019
2019-05-12T11:21:58.280Z,42.3545
2019-05-12T11:23:03.298Z,41.5671
2019-05-12T11:24:07.297Z,41.0819
2019-05-12T11:25:10.389Z,42.3499
2019-05-12T11:26:14.184Z,42.1134
2019-05-12T11:27:17.332Z,41.8250
2019-05-12T11:28:20.326Z,43.3539
2019-05-12T11:29:23.641Z,43.2013
2019-05-12T11:30:27.339Z,44.6815
2019-05-12T11:31:30.281Z,46.9688
2019-05-12T11:32:34.928Z,45.7053
2019-05-12T11:33:43.471Z,46.0319
2019-05-12T11:34:47.308Z,45.9083
2019-05-12T11:35:50.343Z,47.1382
2019-05-12T11:36:54.532Z,45.5100
2019-05-12T11:37:56.279Z,45.3773
2019-05-12T11:38:59.298Z,45.0553
2019-05-12T11:40:04.272Z,45.7420
2019-05-12T11:41:09.908Z,46.9429
2019-05-12T11:42:15.286Z,46.3523
2019-05-12T11:43:18.318Z,45.4582
2019-05-12T11:44:23.177Z,47.4952
2019-05-12T11:45:26.371Z,48.4764
2019-05-12T11:46:29.265Z,48.1193
2019-05-12T11:47:35.572Z,48.1910
2019-05-12T11:48:45.184Z,48.8884
2019-05-12T11:49:48.281Z,48.8273
2019-05-12T11:50:51.472Z,48.3574
2019-05-12T11:51:54.495Z,48.8319
2019-05-12T11:52:57.300Z,48.3558
2019-05-12T11:54:03.414Z,48.6717
2019-05-12T11:55:08.295Z,49.3355
2019-05-12T11:56:10.332Z,48.0949
2019-05-12T11:57:13.310Z,47.8569
2019-05-12T11:58:16.338Z,49.0883
2019-05-12T11:59:19.305Z,46.6453
2019-05-12T12:00:24.197Z,45.7420
2019-05-12T12:01:27.335Z,43.9796
2019-05-12T12:02:30.630Z,43.6881
2019-05-12T12:03:34.290Z,41.9196
2019-05-12T12:04:37.315Z,42.2095
2019-05-12T12:05:40.285Z,42.4475
2019-05-12T12:06:43.811Z,40.6302
2019-05-12T12:07:51.379Z,39.8749
2019-05-12T12:08:54.298Z,40.6607
2019-05-12T12:09:59.444Z,40.0168
2019-05-12T12:11:03.975Z,37.5753
2019-05-12T12:12:07.539Z,38.2498
2019-05-12T12:13:10.281Z,39.0448
2019-05-12T12:14:14.269Z,38.2300
2019-05-12T12:15:20.472Z,36.8002
2019-05-12T12:16:25.334Z,37.3907
2019-05-12T12:17:31.017Z,40.5798
2019-05-12T12:18:35.312Z,36.1517
2019-05-12T12:19:43.851Z,39.2370
2019-05-12T12:20:46.322Z,37.5982
2019-05-12T12:21:50.155Z,37.9385
2019-05-12T12:22:54.259Z,40.2167
2019-05-12T12:23:57.320Z,39.5438
2019-05-12T12:25:03.186Z,38.6511
2019-05-12T12:26:08.324Z,40.4639
2019-05-12T12:27:11.316Z,44.3473
2019-05-12T12:28:14.366Z,44.4236
2019-05-12T12:29:17.289Z,45.1240
2019-05-12T12:30:20.315Z,45.4322
2019-05-12T12:31:23.832Z,43.5599
2019-05-12T12:32:27.343Z,44.1367
2019-05-12T12:33:31.130Z,44.6342
2019-05-12T12:34:38.320Z,44.8997
2019-05-12T12:35:41.372Z,43.8514
2019-05-12T12:36:44.260Z,43.2105
2019-05-12T12:37:47.343Z,45.6550
2019-05-12T12:38:50.296Z,44.5518
2019-05-12T12:39:53.662Z,45.5772
2019-05-12T12:40:57.283Z,44.2267
2019-05-12T12:42:00.897Z,46.0136
2019-05-12T12:43:04.333Z,44.4007
2019-05-12T12:44:07.273Z,43.8254
2019-05-12T12:45:10.346Z,41.6175
2019-05-12T12:46:18.178Z,40.9812
2019-05-12T12:47:23.691Z,37.5662
2019-05-12T12:48:29.741Z,36.5667
2019-05-12T12:49:33.947Z,39.4812
2019-05-12T12:50:37.283Z,40.6348
2019-05-12T12:51:40.310Z,40.6378
2019-05-12T12:52:44.855Z,42.8733
2019-05-12T12:53:51.358Z,41.6037
2019-05-12T12:54:54.407Z,43.2212
2019-05-12T12:55:58.672Z,44.2130
2019-05-12T12:57:06.322Z,43.2029